OIIK  Qazvin  Airport

Qazvin, Iran

Add Bookmark
ICAO OIIK
Type Airport
Status Operational
Latitude
36° 14' 24" N
36.240101
Longitude
50° 2' 49" E
50.047100
Local (DST + 5) UTC (GMT + 4)
May 28, 2015 06:14 May 28, 2015 01:44
Sunrise-Sunset Local UTC
Begin Civil Twilight 05:24 00:54
Sunrise 05:53 01:23
Sunset 08:20 15:50
End Civil Twilight 08:49 16:19
VFR
VFR
MVFR
MVFR
IFR
VFR
LIFR
VFR
Unknown
Unavailable

Current Weather

METAR Observed VFR
OIIK 280100Z 00000KT CAVOK 15/06 Q1014 Thu, May 28, 2015 @ 01:00 UTC
(44 Minutes ago)
Visual Flight Rules
Wind Visibility Conditions
Calm 10 km or more
  • No significant weather
Temperatures Readings Precipitation
Current Temp
15°C
59°F
Dewpoint
6°C
43°F
Humidity 55%
Altimeter 29.94" Hg
Sea Level Pressure 1,014 mb
Field Elevation
1,278 m
4,193 ft
None Recorded

Additional weather within a 92.6km radius of OIIK

Map ICAO Location
OIIP 87km SE (126°)
VFR
VFR
MVFR
MVFR
IFR
VFR
LIFR
VFR
Unknown
Unavailable
-
-

CheckWX.com is intended as a tool to help pilots better visualize weather data. It is not intended as a substitute for an official weather briefing obtained from a Flight Service Station. CheckWX.com does not meet the FAA requirements for an official pre-flight weather briefing. Therefore, it's important that pilots still call and obtain an official FSS pre-flight weather briefing.

© 2007-2015 CheckWX.com
01:44:23 UTC